• Join FlightAware (Why Join?)
  • Login
  • US Flag GB Flag 
18:11 EST


 

Airport Tracker/Info


-or-


 

Live Flight TrackerFlight Track Log ✈ N59CW ✈ 05-Oct-2013 ✈ KPXE - KPIE

Flight Track Log - Related Links

Times and Time Zones

All times are in EDT time to prevent confusion due to time zone crossing. See the N59CW flight status page for this flight to view local times or setup timezone preferences in your user account.

Time Position Orientation Groundspeed Altitude Reporting Facility
EDT Latitude Longitude Course Direction KTS MPH feet Rate Location/Type
21:02 32.4500 -83.7333 140° Southeast 109 125 1,900  Level Atlanta TRACON
21:03 32.4167 -83.7000 140° Southeast 98 113 2,500 540 Climbing Atlanta TRACON
21:04 32.4000 -83.6833 140° Southeast 99 114 3,000 600 Climbing Atlanta TRACON
21:05 32.3833 -83.6667 140° Southeast 96 110 3,700 600 Climbing Atlanta TRACON
21:06 32.3667 -83.6500 140° Southeast 98 113 4,300 480 Climbing Atlanta TRACON
21:07 32.3378 -83.6253 144° Southeast 94 108 4,800 540 Climbing Jacksonville Center
21:08 32.3169 -83.6031 138° Southeast 105 121 5,500 600 Climbing Jacksonville Center
21:09 32.2983 -83.5833 138° Southeast 105 121 6,000 480 Climbing Jacksonville Center
21:10 32.2797 -83.5611 135° Southeast 105 121 6,500 480 Climbing Jacksonville Center
21:11 32.2589 -83.5411 141° Southeast 105 121 7,000 480 Climbing Jacksonville Center
21:12 32.2358 -83.5239 148° Southeast 105 121 7,500 480 Climbing Jacksonville Center
21:13 32.2153 -83.5039 141° Southeast 105 121 8,000 480 Climbing Jacksonville Center
21:14 32.1881 -83.5014 176° South 100 115 8,500 420 Climbing Jacksonville Center
21:15 32.1589 -83.4986 175° South 100 115 8,900 240 Climbing Jacksonville Center
21:16 32.1253 -83.4986 180° South 110 127 9,000  Climbing Jacksonville Center
21:17 32.0878 -83.4983 180° South 120 138 9,000  Level Jacksonville Center
21:18 32.0481 -83.4956 177° South 139 160 9,000  Level Jacksonville Center
21:19 32.0064 -83.4953 180° South 144 166 9,000  Level Jacksonville Center
21:20 31.9667 -83.4900 174° South 144 166 9,000  Level Jacksonville Center
21:21 31.9272 -83.4800 168° South 144 166 9,000  Level Jacksonville Center
21:22 31.8875 -83.4700 168° South 144 166 9,000  Level Jacksonville Center
21:23 31.8478 -83.4625 171° South 144 166 9,000  Level Jacksonville Center
21:24 31.8083 -83.4547 170° South 144 166 9,000  Level Jacksonville Center
21:25 31.7686 -83.4447 168° South 144 166 9,000  Level Jacksonville Center
21:26 31.7289 -83.4397 174° South 144 166 9,000  Level Jacksonville Center
21:27 31.6956 -83.4322 169° South 144 166 9,000  Level Jacksonville Center
21:28 31.6539 -83.4247 171° South 144 166 9,000  Level Jacksonville Center
21:29 31.6122 -83.4147 168° South 144 166 9,000  Level Jacksonville Center
21:30 31.5725 -83.4072 171° South 144 166 9,000  Level Jacksonville Center
21:31 31.5328 -83.3972 168° South 144 166 9,000  Level Jacksonville Center
21:32 31.4933 -83.3872 168° South 144 166 9,000  Level Jacksonville Center
21:33 31.4536 -83.3797 171° South 144 166 9,000  Level Jacksonville Center
21:34 31.4119 -83.3697 168° South 144 166 9,000  Level Jacksonville Center
21:35 31.3744 -83.3622 170° South 144 166 9,000  Level Jacksonville Center
21:36 31.3347 -83.3522 168° South 144 166 9,000  Level Jacksonville Center
21:37 31.2950 -83.3422 168° South 144 166 9,000  Level Jacksonville Center
21:38 31.2556 -83.3325 168° South 144 166 9,000  Level Jacksonville Center
21:39 31.2158 -83.3250 171° South 144 166 9,000  Level Jacksonville Center
21:40 31.1761 -83.3200 174° South 144 166 9,000  Level Jacksonville Center
21:41 31.1344 -83.3172 177° South 144 166 9,000  Level Jacksonville Center
21:42 31.0969 -83.3100 171° South 144 166 9,000  Level Jacksonville Center
21:43 31.0550 -83.3025 171° South 144 166 9,000  Level Jacksonville Center
21:44 31.0156 -83.2950 171° South 144 166 9,000  Level Jacksonville Center
21:45 30.9778 -83.2875 170° South 144 166 9,000  Level Jacksonville Center
21:46 30.9361 -83.2825 174° South 144 166 9,000  Level Jacksonville Center
21:47 30.8964 -83.2703 165° South 144 166 9,000  Level Jacksonville Center
21:48 30.8569 -83.2603 168° South 144 166 9,000  Level Jacksonville Center
21:49 30.8131 -83.2556 175° South 144 166 9,000  Level Jacksonville Center
21:50 30.7756 -83.2481 170° South 144 166 9,000  Level Jacksonville Center
21:51 30.7336 -83.2358 166° South 144 166 9,000  Level Jacksonville Center
21:52 30.6961 -83.2258 167° South 144 166 9,000  Level Jacksonville Center
21:53 30.6567 -83.2161 168° South 144 166 9,000  Level Jacksonville Center
21:54 30.6147 -83.2064 169° South 144 166 9,000  Level Jacksonville Center
21:55 30.5772 -83.1992 171° South 144 166 9,000  Level Jacksonville Center
21:56 30.5375 -83.1917 171° South 144 166 9,000  Level Jacksonville Center
21:57 30.4981 -83.1819 168° South 144 166 9,000  Level Jacksonville Center
21:58 30.4561 -83.1769 174° South 144 166 9,000  Level Jacksonville Center
21:59 30.4167 -83.1694 171° South 144 166 9,000  Level Jacksonville Center
22:00 30.3789 -83.1622 171° South 144 166 9,000  Level Jacksonville Center
22:01 30.3372 -83.1500 166° South 144 166 9,000  Level Jacksonville Center
22:02 30.2975 -83.1428 171° South 144 166 9,000  Level Jacksonville Center
22:03 30.2558 -83.1378 174° South 144 166 9,000  Level Jacksonville Center
22:04 30.2161 -83.1353 177° South 149 171 9,000  Level Jacksonville Center
22:05 30.1767 -83.1233 165° South 149 171 9,000  Level Jacksonville Center
22:06 30.1347 -83.1158 171° South 149 171 9,000  Level Jacksonville Center
22:07 30.0931 -83.1086 171° South 149 171 9,000  Level Jacksonville Center
22:08 30.0514 -83.1014 171° South 149 171 9,000  Level Jacksonville Center
22:09 30.0117 -83.0917 168° South 149 171 9,000  Level Jacksonville Center
22:10 29.9719 -83.0819 168° South 149 171 9,000  Level Jacksonville Center
22:11 29.9344 -83.0747 171° South 144 166 9,000  Level Jacksonville Center
22:12 29.8928 -83.0650 169° South 144 166 9,000  Level Jacksonville Center
22:13 29.8550 -83.0556 168° South 150 173 9,000  Level Jacksonville Center
22:14 29.8114 -83.0506 174° South 150 173 9,000  Level Jacksonville Center
22:15 29.7736 -83.0433 171° South 145 167 9,000  Level Jacksonville Center
22:16 29.7300 -83.0361 172° South 145 167 9,000  Level Jacksonville Center
22:17 29.6903 -83.0289 171° South 145 167 9,000  Level Jacksonville Center
22:18 29.6486 -83.0192 169° South 145 167 9,000  Level Jacksonville Center
22:19 29.6089 -83.0097 168° South 150 173 9,000  Level Jacksonville Center
22:20 29.5692 -83.0047 174° South 143 165 9,000  Level Jacksonville Center
22:21 29.5294 -82.9928 165° South 153 176 9,000  Level Jacksonville Center
22:22 29.4878 -82.9881 174° South 147 169 9,000  Level Jacksonville Center
22:23 29.4503 -82.9833 174° South 152 175 9,000  Level Jacksonville Center
22:24 29.4083 -82.9761 171° South 152 175 9,000  Level Jacksonville Center
22:25 29.3708 -82.9664 167° South 152 175 9,000  Level Jacksonville Center
22:26 29.3292 -82.9569 169° South 147 169 9,000 -60 Level Jacksonville Center
22:27 29.2875 -82.9450 166° South 147 169 8,900  Descending Jacksonville Center
22:28 29.2478 -82.9378 171° South 147 169 9,000  Climbing Jacksonville Center
22:29 29.2081 -82.9306 171° South 147 169 9,000  Level Jacksonville Center
22:30 29.1683 -82.9211 168° South 147 169 9,000  Level Jacksonville Center
22:31 29.1267 -82.9164 174° South 147 169 9,000 -180 Level Jacksonville Center
22:32 29.0850 -82.9117 174° South 147 169 8,700 -300 Descending Jacksonville Center
22:33 29.0431 -82.9019 169° South 147 169 8,500 -420 Descending Jacksonville Center
22:34 29.0036 -82.8950 171° South 147 169 7,900 -540 Descending Jacksonville Center
22:35 28.9617 -82.8856 169° South 147 169 7,500 -480 Descending Jacksonville Center
22:36 28.9222 -82.8806 174° South 147 169 7,000 -600 Descending Jacksonville Center
22:37 28.8825 -82.8689 166° South 147 169 6,300 -600 Descending Jacksonville Center
22:39 28.8000 -82.8500 169° South 144 166 5,400 -480 Descending Tampa TRACON
22:40 28.7667 -82.8500 180° South 148 170 5,000 -240 Descending Tampa TRACON
22:41 28.7167 -82.8333 164° South 145 167 5,000  Level Tampa TRACON
22:42 28.6833 -82.8333 180° South 144 166 5,000  Level Tampa TRACON
22:43 28.6333 -82.8333 180° South 146 168 5,000  Level Tampa TRACON
22:44 28.6000 -82.8167 156° South 147 169 5,000  Level Tampa TRACON
22:45 28.5500 -82.8167 180° South 149 171 5,100  Climbing Tampa TRACON
22:46 28.5167 -82.8000 156° South 147 169 5,000 -60 Descending Tampa TRACON
22:47 28.4833 -82.8000 180° South 148 170 5,000  Level Tampa TRACON
22:48 28.4333 -82.7833 164° South 150 173 5,000  Level Tampa TRACON
22:49 28.4000 -82.7833 180° South 146 168 5,000  Level Tampa TRACON
22:50 28.3500 -82.7667 164° South 145 167 5,000 -300 Level Tampa TRACON
22:51 28.3167 -82.7667 180° South 147 169 4,500 -540 Descending Tampa TRACON
22:52 28.2667 -82.7500 164° South 147 169 4,000 -600 Descending Tampa TRACON
22:53 28.2333 -82.7500 180° South 144 166 3,400 -600 Descending Tampa TRACON
22:54 28.2000 -82.7500 180° South 148 170 2,800 -360 Descending Tampa TRACON
22:55 28.1500 -82.7333 164° South 141 162 2,700 -120 Descending Tampa TRACON
22:56 28.1167 -82.7333 180° South 124 143 2,600 -240 Descending Tampa TRACON
22:57 28.0833 -82.7333 180° South 119 137 2,300 -300 Descending Tampa TRACON